Time;durP1;ratioP1;P1;durP2;ratioP2;P2;SDS_P1;SDS_P2;PMS_P1;PMS_P2;Temp;Humidity;BMP_temperature;BMP_pressure;BME280_temperature;BME280_humidity;BME280_pressure;Samples;Min_cycle;Max_cycle;Signal;HPM_P1;HPM_P2
2021/06/04 00:01:14;;;;;;;8.17;7.37;;;;;;;;;;6287549;22;20454;-95
2021/06/04 00:03:40;;;;;;;8.70;7.90;;;;;;;;;;6291912;22;20398;-96
2021/06/04 00:06:07;;;;;;;8.73;7.93;;;;;;;;;;6287300;22;20441;-96
2021/06/04 00:08:34;;;;;;;9.97;7.53;;;;;;;;;;6288276;22;20421;-95
2021/06/04 00:11:03;;;;;;;8.33;7.53;;;;;;;;;;6285130;22;20410;-94
2021/06/04 00:13:31;;;;;;;9.20;7.40;;;;;;;;;;6285726;22;20402;-93
2021/06/04 00:15:58;;;;;;;8.27;7.43;;;;;;;;;;6284906;22;21024;-94
2021/06/04 00:18:26;;;;;;;9.73;6.50;;;;;;;;;;6286609;22;20420;-95
2021/06/04 00:20:52;;;;;;;9.13;7.50;;;;;;;;;;6286600;22;20411;-94
2021/06/04 00:23:18;;;;;;;8.77;7.87;;;;;;;;;;6289014;22;20412;-95
2021/06/04 00:25:44;;;;;;;10.33;8.07;;;;;;;;;;6287809;22;20413;-94
2021/06/04 00:28:11;;;;;;;9.00;8.10;;;;;;;;;;6289418;22;20894;-95
2021/06/04 00:30:37;;;;;;;7.80;7.07;;;;;;;;;;6289132;22;20445;-95
2021/06/04 00:33:03;;;;;;;8.70;7.83;;;;;;;;;;6289876;22;20448;-94
2021/06/04 00:35:31;;;;;;;10.50;8.20;;;;;;;;;;6289174;22;20409;-94
2021/06/04 00:37:57;;;;;;;8.37;7.57;;;;;;;;;;6290360;22;20403;-94
2021/06/04 00:40:25;;;;;;;8.87;8.00;;;;;;;;;;6288309;22;20403;-95
2021/06/04 00:42:52;;;;;;;7.90;7.20;;;;;;;;;;6289571;22;20426;-96
2021/06/04 00:45:21;;;;;;;11.17;7.27;;;;;;;;;;6289948;22;20414;-92
2021/06/04 00:47:48;;;;;;;7.57;6.87;;;;;;;;;;6289010;22;20412;-93
2021/06/04 00:50:15;;;;;;;10.07;9.10;;;;;;;;;;6288737;22;20404;-93
2021/06/04 00:52:43;;;;;;;9.93;8.90;;;;;;;;;;6290394;22;20443;-95
2021/06/04 00:55:11;;;;;;;11.50;9.63;;;;;;;;;;6291480;22;20409;-95
2021/06/04 00:57:38;;;;;;;10.43;9.00;;;;;;;;;;6300867;22;21348;-96
2021/06/04 01:00:06;;;;;;;10.60;9.30;;;;;;;;;;6300530;22;20509;-96
2021/06/04 01:02:32;;;;;;;10.23;9.13;;;;;;;;;;6288019;22;20421;-93
2021/06/04 01:04:58;;;;;;;11.03;9.93;;;;;;;;;;6290771;22;20401;-94
2021/06/04 01:07:28;;;;;;;10.90;8.70;;;;;;;;;;6288852;22;20413;-95
2021/06/04 01:10:04;;;;;;;10.70;8.83;;;;;;;;;;6289438;22;20418;-94
2021/06/04 01:12:35;;;;;;;8.70;7.90;;;;;;;;;;6287493;22;20452;-93
2021/06/04 01:15:06;;;;;;;9.20;8.20;;;;;;;;;;6289149;22;20414;-94
2021/06/04 01:17:36;;;;;;;8.50;7.47;;;;;;;;;;6288413;22;20456;-95
2021/06/04 01:20:04;;;;;;;9.80;8.80;;;;;;;;;;6290663;22;20401;-95
2021/06/04 01:22:47;;;;;;;10.93;9.73;;;;;;;;;;6288732;22;20922;-94
2021/06/04 01:25:26;;;;;;;8.33;7.47;;;;;;;;;;6287048;22;20437;-94
2021/06/04 01:27:53;;;;;;;9.87;7.53;;;;;;;;;;6286512;22;20406;-96
2021/06/04 01:30:26;;;;;;;9.20;6.70;;;;;;;;;;6289377;22;20426;-94
2021/06/04 01:32:54;;;;;;;12.20;7.90;;;;;;;;;;6288270;22;20451;-96
2021/06/04 01:35:23;;;;;;;7.87;7.10;;;;;;;;;;6287170;22;20408;-95
2021/06/04 01:37:49;;;;;;;8.53;7.80;;;;;;;;;;6286927;22;20498;-95
2021/06/04 01:40:20;;;;;;;9.80;8.00;;;;;;;;;;6290730;22;20801;-96
2021/06/04 01:42:50;;;;;;;11.70;8.17;;;;;;;;;;6292515;22;20949;-96
2021/06/04 01:45:20;;;;;;;9.57;8.60;;;;;;;;;;6288959;22;20414;-95
2021/06/04 01:47:50;;;;;;;8.70;7.90;;;;;;;;;;6288219;22;20399;-93
2021/06/04 01:50:18;;;;;;;8.40;7.60;;;;;;;;;;6287023;22;20421;-95
2021/06/04 01:52:45;;;;;;;9.47;8.47;;;;;;;;;;6288188;22;20446;-95
2021/06/04 01:55:13;;;;;;;9.00;8.10;;;;;;;;;;6286711;22;20450;-96
2021/06/04 01:57:41;;;;;;;10.43;9.33;;;;;;;;;;6287989;22;20937;-96
2021/06/04 02:00:11;;;;;;;9.60;8.67;;;;;;;;;;6289096;22;20414;-96
2021/06/04 02:02:38;;;;;;;8.70;7.90;;;;;;;;;;6290401;22;20416;-95
2021/06/04 02:05:06;;;;;;;13.53;8.90;;;;;;;;;;6287610;22;20410;-96
2021/06/04 02:07:33;;;;;;;8.90;8.00;;;;;;;;;;6289153;22;20418;-94
2021/06/04 02:10:05;;;;;;;11.47;9.47;;;;;;;;;;6288109;22;20413;-94
2021/06/04 02:12:31;;;;;;;9.73;8.73;;;;;;;;;;6293111;22;20451;-94
2021/06/04 02:14:59;;;;;;;10.10;9.00;;;;;;;;;;6287366;22;20405;-94
2021/06/04 02:17:35;;;;;;;11.97;9.43;;;;;;;;;;6288384;22;20474;-95
2021/06/04 02:20:07;;;;;;;12.40;8.60;;;;;;;;;;6288507;22;20420;-95
2021/06/04 02:22:36;;;;;;;12.70;9.20;;;;;;;;;;6289742;22;20417;-96
2021/06/04 02:25:05;;;;;;;11.10;9.27;;;;;;;;;;6286326;22;20468;-95
2021/06/04 02:27:33;;;;;;;9.90;8.87;;;;;;;;;;6288550;22;20410;-95
2021/06/04 02:30:01;;;;;;;10.23;9.23;;;;;;;;;;6290617;22;20424;-95
2021/06/04 02:32:33;;;;;;;10.30;8.23;;;;;;;;;;6289674;22;20449;-93
2021/06/04 02:35:01;;;;;;;9.50;8.00;;;;;;;;;;6294560;22;20413;-94
2021/06/04 02:37:29;;;;;;;8.63;7.80;;;;;;;;;;6298953;22;20397;-93
2021/06/04 02:39:58;;;;;;;12.80;9.67;;;;;;;;;;6290657;22;20414;-94
2021/06/04 02:42:26;;;;;;;14.13;10.40;;;;;;;;;;6287615;22;20421;-95
2021/06/04 02:44:54;;;;;;;8.93;7.70;;;;;;;;;;6288020;22;20428;-95
2021/06/04 02:47:22;;;;;;;12.30;9.70;;;;;;;;;;6288119;22;20406;-96
2021/06/04 02:49:49;;;;;;;11.43;9.87;;;;;;;;;;6289732;22;20405;-96
2021/06/04 02:52:28;;;;;;;12.10;10.80;;;;;;;;;;6288047;22;20447;-95
2021/06/04 02:54:54;;;;;;;11.13;9.73;;;;;;;;;;6293011;22;20404;-96
2021/06/04 02:57:22;;;;;;;11.00;9.90;;;;;;;;;;6291906;22;20485;-96
2021/06/04 02:59:50;;;;;;;10.57;8.30;;;;;;;;;;6291605;22;20450;-94
2021/06/04 03:02:18;;;;;;;11.10;9.00;;;;;;;;;;6292435;22;20427;-96
2021/06/04 03:04:51;;;;;;;10.23;9.23;;;;;;;;;;6299301;22;20426;-95
2021/06/04 03:07:35;;;;;;;10.20;9.20;;;;;;;;;;6300417;22;20480;-96
2021/06/04 03:10:08;;;;;;;14.10;10.90;;;;;;;;;;6297743;22;20405;-96
2021/06/04 03:12:37;;;;;;;11.83;9.83;;;;;;;;;;6297672;22;20444;-96
2021/06/04 03:15:05;;;;;;;10.10;9.10;;;;;;;;;;6296774;22;20449;-96
2021/06/04 03:17:33;;;;;;;9.97;8.97;;;;;;;;;;6290335;22;20474;-96
2021/06/04 03:20:00;;;;;;;11.40;8.90;;;;;;;;;;6295266;22;20396;-96
2021/06/04 03:22:28;;;;;;;9.77;8.17;;;;;;;;;;6297090;22;20412;-96
2021/06/04 03:24:55;;;;;;;10.20;8.50;;;;;;;;;;6293215;22;20424;-95
2021/06/04 03:27:23;;;;;;;11.43;10.23;;;;;;;;;;6289518;22;20411;-95
2021/06/04 03:29:50;;;;;;;12.13;10.80;;;;;;;;;;6289515;22;20447;-95
2021/06/04 03:32:16;;;;;;;13.20;10.60;;;;;;;;;;6288812;22;20444;-96
2021/06/04 03:44:03;;;;;;;12.57;10.67;;;;;;;;;;6267757;22;20437;-96
2021/06/04 03:46:37;;;;;;;12.40;11.00;;;;;;;;;;6243183;23;20413;-96
2021/06/04 03:49:15;;;;;;;16.53;11.40;;;;;;;;;;6266475;23;20424;-96
2021/06/04 03:52:07;;;;;;;13.43;11.77;;;;;;;;;;6268466;23;20442;-96
2021/06/04 04:00:51;;;;;;;13.23;11.83;;;;;;;;;;6184275;23;20416;-96
2021/06/04 04:03:33;;;;;;;12.50;11.20;;;;;;;;;;6298573;22;20411;-96
2021/06/04 04:06:00;;;;;;;12.00;10.53;;;;;;;;;;6272015;22;20448;-95
2021/06/04 04:08:28;;;;;;;13.50;11.57;;;;;;;;;;6304408;22;20406;-95
2021/06/04 04:10:57;;;;;;;14.33;12.20;;;;;;;;;;6292107;22;20467;-95
2021/06/04 04:13:23;;;;;;;13.10;11.60;;;;;;;;;;6291945;22;20448;-96
2021/06/04 04:15:50;;;;;;;13.70;11.63;;;;;;;;;;6290021;22;20425;-95
2021/06/04 04:18:17;;;;;;;14.73;11.83;;;;;;;;;;6288849;22;20418;-94
2021/06/04 04:20:46;;;;;;;13.07;10.70;;;;;;;;;;6289389;22;20406;-95
2021/06/04 04:23:15;;;;;;;14.57;12.33;;;;;;;;;;6291035;22;20412;-95
2021/06/04 04:25:43;;;;;;;15.50;12.23;;;;;;;;;;6289654;22;20444;-95
2021/06/04 04:28:10;;;;;;;14.97;12.33;;;;;;;;;;6290803;22;20414;-95
2021/06/04 04:30:36;;;;;;;15.90;11.80;;;;;;;;;;6292753;22;20485;-95
2021/06/04 04:33:03;;;;;;;16.73;12.37;;;;;;;;;;6293179;22;20442;-96
2021/06/04 04:35:30;;;;;;;13.10;11.67;;;;;;;;;;6294293;22;20409;-95
2021/06/04 04:37:58;;;;;;;15.47;12.40;;;;;;;;;;6293578;22;20413;-95
2021/06/04 04:40:25;;;;;;;14.63;12.10;;;;;;;;;;6288998;22;20410;-93
2021/06/04 04:42:51;;;;;;;14.80;12.50;;;;;;;;;;6290191;22;20406;-92
2021/06/04 04:45:21;;;;;;;13.03;11.27;;;;;;;;;;6289011;22;20977;-92
2021/06/04 04:47:47;;;;;;;14.50;12.97;;;;;;;;;;6290353;22;20935;-93
2021/06/04 04:50:14;;;;;;;18.50;11.67;;;;;;;;;;6289322;22;20411;-95
2021/06/04 04:52:40;;;;;;;12.80;11.60;;;;;;;;;;6289483;22;20444;-94
2021/06/04 04:55:13;;;;;;;18.47;13.50;;;;;;;;;;6291124;22;20415;-96
2021/06/04 04:57:40;;;;;;;17.93;13.10;;;;;;;;;;6277573;22;20432;-95
2021/06/04 05:06:10;;;;;;;12.80;11.50;;;;;;;;;;6260073;23;20467;-94
2021/06/04 05:08:38;;;;;;;16.63;11.90;;;;;;;;;;6258076;23;20744;-94
2021/06/04 05:11:05;;;;;;;13.40;11.93;;;;;;;;;;6257859;23;20424;-94
2021/06/04 05:13:41;;;;;;;12.60;11.30;;;;;;;;;;6269001;23;20449;-96
2021/06/04 05:16:08;;;;;;;16.53;12.10;;;;;;;;;;6260612;23;20401;-96
2021/06/04 05:18:35;;;;;;;13.97;11.17;;;;;;;;;;6259907;23;20490;-94
2021/06/04 05:21:02;;;;;;;12.67;10.80;;;;;;;;;;6259987;23;20409;-95
2021/06/04 05:23:28;;;;;;;12.73;11.43;;;;;;;;;;6261019;23;20413;-93
2021/06/04 05:25:56;;;;;;;13.67;12.23;;;;;;;;;;6261166;23;20418;-93
2021/06/04 05:28:25;;;;;;;13.70;12.03;;;;;;;;;;6259159;23;20409;-93
2021/06/04 05:30:52;;;;;;;12.73;11.53;;;;;;;;;;6258374;23;20745;-94
2021/06/04 05:33:22;;;;;;;13.97;11.90;;;;;;;;;;6256893;23;20445;-96
2021/06/04 05:35:49;;;;;;;11.80;10.70;;;;;;;;;;6232845;23;20452;-94
2021/06/04 05:38:15;;;;;;;12.20;10.53;;;;;;;;;;6264349;23;20489;-93
2021/06/04 05:40:42;;;;;;;12.30;9.43;;;;;;;;;;6272546;23;20436;-94
2021/06/04 05:43:11;;;;;;;12.40;10.27;;;;;;;;;;6270871;23;20411;-94
2021/06/04 05:45:40;;;;;;;12.07;10.03;;;;;;;;;;6260582;23;20451;-94
2021/06/04 05:48:07;;;;;;;11.47;10.40;;;;;;;;;;6255850;23;20433;-94
2021/06/04 05:50:35;;;;;;;12.33;11.23;;;;;;;;;;6258719;23;20852;-95
2021/06/04 05:53:03;;;;;;;11.63;10.43;;;;;;;;;;6256509;23;20441;-94
2021/06/04 05:55:30;;;;;;;12.97;11.63;;;;;;;;;;6258048;23;20420;-95
2021/06/04 05:57:57;;;;;;;12.13;10.83;;;;;;;;;;6278004;22;20491;-93
2021/06/04 06:00:25;;;;;;;18.23;12.70;;;;;;;;;;6287739;22;20613;-94
2021/06/04 06:02:55;;;;;;;12.10;10.60;;;;;;;;;;6283560;22;20405;-93
2021/06/04 06:05:21;;;;;;;13.67;10.80;;;;;;;;;;6286665;22;20408;-95
2021/06/04 06:07:51;;;;;;;13.70;10.97;;;;;;;;;;6289283;22;20409;-96
2021/06/04 06:10:17;;;;;;;11.87;10.10;;;;;;;;;;6288025;22;20409;-95
2021/06/04 06:12:43;;;;;;;13.60;9.77;;;;;;;;;;6286416;22;20456;-93
2021/06/04 06:15:10;;;;;;;10.80;9.10;;;;;;;;;;6283495;22;20413;-95
2021/06/04 06:17:36;;;;;;;9.20;8.40;;;;;;;;;;6287787;22;20429;-96
2021/06/04 06:20:04;;;;;;;10.43;9.37;;;;;;;;;;6293689;22;20412;-96
2021/06/04 06:22:34;;;;;;;10.00;9.10;;;;;;;;;;6296791;22;20415;-95
2021/06/04 06:25:01;;;;;;;11.90;9.60;;;;;;;;;;6263680;22;20416;-96
2021/06/04 06:27:27;;;;;;;10.50;9.50;;;;;;;;;;6293056;22;20423;-95
2021/06/04 06:29:55;;;;;;;10.77;9.63;;;;;;;;;;6294525;22;20413;-96
2021/06/04 06:32:31;;;;;;;11.50;10.10;;;;;;;;;;6286107;22;20479;-95
2021/06/04 06:34:57;;;;;;;10.27;9.27;;;;;;;;;;6291969;22;20413;-96
2021/06/04 06:40:44;;;;;;;10.00;9.00;;;;;;;;;;6287726;22;20419;-96
2021/06/04 06:43:12;;;;;;;10.97;9.20;;;;;;;;;;6299286;22;20399;-95
2021/06/04 06:45:39;;;;;;;11.00;10.00;;;;;;;;;;6291050;22;20456;-96
2021/06/04 06:48:06;;;;;;;9.13;8.23;;;;;;;;;;6288114;22;20786;-95
2021/06/04 06:50:32;;;;;;;8.40;7.47;;;;;;;;;;6281770;22;20401;-93
2021/06/04 06:53:00;;;;;;;9.70;8.67;;;;;;;;;;6284326;22;20480;-94
2021/06/04 06:55:29;;;;;;;11.10;8.40;;;;;;;;;;6286167;22;21035;-95
2021/06/04 06:57:56;;;;;;;12.90;9.10;;;;;;;;;;6286385;22;20480;-94
2021/06/04 07:00:25;;;;;;;10.30;9.50;;;;;;;;;;6285111;22;20405;-96
2021/06/04 07:02:51;;;;;;;10.37;9.23;;;;;;;;;;6287526;22;20413;-96
2021/06/04 07:05:17;;;;;;;11.17;8.80;;;;;;;;;;6287397;22;20412;-95
2021/06/04 07:07:44;;;;;;;9.73;8.37;;;;;;;;;;6289261;22;20787;-96
2021/06/04 07:10:12;;;;;;;10.63;8.50;;;;;;;;;;6292156;22;20401;-93
2021/06/04 07:12:38;;;;;;;13.97;10.50;;;;;;;;;;6289976;22;20452;-93
2021/06/04 07:15:15;;;;;;;12.80;9.47;;;;;;;;;;6303458;22;20397;-96
2021/06/04 07:17:42;;;;;;;10.27;9.23;;;;;;;;;;6293881;22;20423;-92
2021/06/04 07:20:09;;;;;;;11.63;9.60;;;;;;;;;;6285813;22;20524;-93
2021/06/04 07:22:35;;;;;;;10.13;9.10;;;;;;;;;;6287121;22;20427;-96
2021/06/04 07:25:02;;;;;;;10.60;9.50;;;;;;;;;;6288531;22;20423;-92
2021/06/04 07:27:29;;;;;;;9.93;9.03;;;;;;;;;;6288735;22;20397;-96
2021/06/04 07:29:55;;;;;;;9.73;8.00;;;;;;;;;;6287731;22;20413;-92
2021/06/04 07:32:22;;;;;;;8.73;7.93;;;;;;;;;;6284849;22;20551;-92
2021/06/04 07:34:48;;;;;;;9.33;8.30;;;;;;;;;;6288724;22;20408;-95
2021/06/04 07:37:14;;;;;;;9.07;8.27;;;;;;;;;;6288621;22;20411;-93
2021/06/04 07:39:40;;;;;;;10.30;9.27;;;;;;;;;;6289294;22;20808;-96
2021/06/04 07:42:08;;;;;;;14.67;8.80;;;;;;;;;;6291689;22;20409;-96
2021/06/04 07:44:34;;;;;;;13.40;8.77;;;;;;;;;;6292705;22;20417;-96
2021/06/04 07:47:03;;;;;;;14.87;9.50;;;;;;;;;;6286929;22;20437;-95
2021/06/04 07:49:30;;;;;;;12.13;8.80;;;;;;;;;;6266983;22;21395;-96
2021/06/04 07:52:08;;;;;;;9.50;8.70;;;;;;;;;;6291187;22;20452;-96
2021/06/04 07:54:41;;;;;;;9.30;8.40;;;;;;;;;;6290032;22;20432;-96
2021/06/04 07:57:07;;;;;;;8.67;7.90;;;;;;;;;;6290920;22;20397;-94
2021/06/04 07:59:33;;;;;;;10.60;8.20;;;;;;;;;;6285865;22;20420;-95
2021/06/04 08:01:59;;;;;;;9.23;8.23;;;;;;;;;;6285926;22;20914;-95
2021/06/04 08:04:26;;;;;;;9.83;8.50;;;;;;;;;;6288978;22;20950;-95
2021/06/04 08:06:53;;;;;;;9.93;8.07;;;;;;;;;;6288872;22;20409;-94
2021/06/04 08:09:22;;;;;;;7.90;7.00;;;;;;;;;;6287698;22;20420;-96
2021/06/04 08:11:49;;;;;;;10.17;7.87;;;;;;;;;;6276613;22;21355;-95
2021/06/04 08:14:17;;;;;;;9.47;6.90;;;;;;;;;;6252301;23;20412;-94
2021/06/04 08:16:44;;;;;;;8.83;7.10;;;;;;;;;;6256423;23;20460;-94
2021/06/04 08:19:11;;;;;;;7.80;7.00;;;;;;;;;;6257465;22;20411;-93
2021/06/04 08:21:41;;;;;;;8.93;7.20;;;;;;;;;;6257219;23;20410;-95
2021/06/04 08:24:10;;;;;;;6.80;6.20;;;;;;;;;;6261972;23;20401;-96
2021/06/04 08:26:36;;;;;;;9.23;6.80;;;;;;;;;;6257560;23;20412;-94
2021/06/04 08:29:04;;;;;;;8.83;6.50;;;;;;;;;;6261658;23;20408;-96
2021/06/04 08:31:30;;;;;;;8.03;6.13;;;;;;;;;;6259305;23;20408;-93
2021/06/04 08:33:56;;;;;;;7.57;6.73;;;;;;;;;;6263513;23;20456;-96
2021/06/04 08:36:24;;;;;;;11.80;6.13;;;;;;;;;;6263310;23;20446;-94
2021/06/04 08:38:50;;;;;;;9.37;6.40;;;;;;;;;;6270483;22;20415;-96
2021/06/04 08:41:29;;;;;;;6.47;5.70;;;;;;;;;;6265234;23;20417;-96
2021/06/04 08:43:59;;;;;;;7.80;5.47;;;;;;;;;;6254487;23;20970;-96
2021/06/04 08:46:27;;;;;;;8.00;6.10;;;;;;;;;;6253828;23;20417;-96
2021/06/04 08:48:55;;;;;;;7.60;6.90;;;;;;;;;;6259831;23;20472;-96
2021/06/04 08:51:43;;;;;;;7.60;6.30;;;;;;;;;;6255592;23;20417;-95
2021/06/04 08:57:19;;;;;;;17.03;6.30;;;;;;;;;;6257843;22;20430;-95
2021/06/04 08:59:47;;;;;;;9.57;5.63;;;;;;;;;;6261284;22;20417;-94
2021/06/04 09:02:22;;;;;;;7.47;5.90;;;;;;;;;;6270768;23;20398;-96
2021/06/04 09:04:51;;;;;;;5.73;5.17;;;;;;;;;;6264352;22;20467;-95
2021/06/04 09:07:25;;;;;;;5.87;5.23;;;;;;;;;;6292012;22;20404;-96
2021/06/04 09:12:44;;;;;;;7.33;5.20;;;;;;;;;;6276170;22;20506;-96
2021/06/04 09:15:14;;;;;;;7.80;4.70;;;;;;;;;;6299518;22;20413;-96
2021/06/04 09:17:45;;;;;;;8.30;4.50;;;;;;;;;;6298413;22;20401;-96
2021/06/04 09:23:15;;;;;;;6.47;4.90;;;;;;;;;;6291644;22;20401;-96
2021/06/04 09:25:42;;;;;;;5.50;4.97;;;;;;;;;;6233839;22;20464;-95
2021/06/04 09:28:33;;;;;;;6.23;4.57;;;;;;;;;;6296106;22;20412;-96
2021/06/04 09:31:19;;;;;;;5.63;4.20;;;;;;;;;;6301648;22;20463;-96
2021/06/04 09:33:47;;;;;;;5.47;4.87;;;;;;;;;;6293482;22;20479;-95
2021/06/04 09:36:14;;;;;;;5.33;4.50;;;;;;;;;;6289224;22;20405;-95
2021/06/04 09:38:49;;;;;;;11.33;5.30;;;;;;;;;;6295122;22;20478;-95
2021/06/04 09:41:36;;;;;;;5.37;4.87;;;;;;;;;;6295240;22;20440;-96
2021/06/04 09:44:05;;;;;;;5.10;4.53;;;;;;;;;;6288927;22;20421;-96
2021/06/04 09:49:28;;;;;;;6.93;5.90;;;;;;;;;;6235267;23;20498;-96
2021/06/04 09:51:57;;;;;;;5.50;5.10;;;;;;;;;;6226591;23;20401;-96
2021/06/04 09:54:28;;;;;;;7.10;4.60;;;;;;;;;;6229254;22;20461;-96
2021/06/04 09:59:59;;;;;;;4.57;4.27;;;;;;;;;;6259997;22;20397;-95
2021/06/04 10:05:34;;;;;;;4.80;4.30;;;;;;;;;;6259248;22;20446;-96
2021/06/04 10:08:08;;;;;;;7.83;5.00;;;;;;;;;;6293608;22;20408;-96
2021/06/04 10:13:28;;;;;;;4.50;4.20;;;;;;;;;;6301035;22;20469;-96
2021/06/04 10:15:55;;;;;;;5.20;4.67;;;;;;;;;;6291392;22;20404;-96
2021/06/04 10:18:34;;;;;;;5.17;4.67;;;;;;;;;;6295317;22;20610;-95
2021/06/04 10:21:12;;;;;;;5.83;4.70;;;;;;;;;;6268603;22;20392;-96
2021/06/04 10:23:39;;;;;;;4.57;4.27;;;;;;;;;;6286161;22;20401;-95
2021/06/04 10:26:25;;;;;;;4.93;4.53;;;;;;;;;;6295616;22;20405;-96
2021/06/04 10:28:53;;;;;;;4.97;4.50;;;;;;;;;;6299706;22;20435;-95
2021/06/04 10:31:43;;;;;;;6.80;4.30;;;;;;;;;;6300358;22;20433;-96
2021/06/04 10:34:17;;;;;;;4.50;4.20;;;;;;;;;;6285912;22;20496;-96
2021/06/04 10:36:51;;;;;;;5.60;4.50;;;;;;;;;;6298381;22;20420;-96
2021/06/04 10:42:05;;;;;;;6.43;4.93;;;;;;;;;;6291779;22;20462;-96
2021/06/04 10:44:38;;;;;;;4.77;4.37;;;;;;;;;;6266244;22;20492;-96
2021/06/04 10:47:08;;;;;;;4.87;4.43;;;;;;;;;;6293669;22;20455;-96
2021/06/04 10:55:05;;;;;;;5.53;5.13;;;;;;;;;;6194502;22;20535;-96
2021/06/04 11:03:34;;;;;;;5.10;4.47;;;;;;;;;;6272109;22;21090;-96
2021/06/04 11:06:04;;;;;;;4.27;3.97;;;;;;;;;;6236016;22;20438;-96
2021/06/04 11:08:50;;;;;;;4.57;4.27;;;;;;;;;;6304450;22;20400;-96
2021/06/04 11:14:17;;;;;;;4.80;4.40;;;;;;;;;;6263876;22;20456;-93
2021/06/04 11:16:50;;;;;;;4.83;4.43;;;;;;;;;;6259261;22;20461;-96
2021/06/04 11:19:24;;;;;;;4.80;4.40;;;;;;;;;;6296428;22;20405;-96
2021/06/04 11:28:27;;;;;;;4.23;3.93;;;;;;;;;;6289867;22;20440;-94
2021/06/04 11:30:56;;;;;;;6.87;4.90;;;;;;;;;;6300562;22;20413;-96
2021/06/04 11:33:25;;;;;;;9.00;4.47;;;;;;;;;;6264317;22;20439;-96
2021/06/04 11:36:25;;;;;;;5.20;4.60;;;;;;;;;;6298215;22;20397;-96
2021/06/04 11:41:34;;;;;;;5.83;5.00;;;;;;;;;;6266269;22;20461;-95
2021/06/04 11:44:07;;;;;;;5.50;5.03;;;;;;;;;;6291543;22;20450;-96
2021/06/04 11:49:22;;;;;;;5.60;5.20;;;;;;;;;;6254327;22;20432;-96
2021/06/04 11:51:53;;;;;;;5.90;5.50;;;;;;;;;;6258642;22;20465;-96
2021/06/04 11:57:13;;;;;;;5.43;4.93;;;;;;;;;;6235579;22;20464;-96
2021/06/04 12:00:34;;;;;;;5.60;5.20;;;;;;;;;;6235488;23;20438;-95
2021/06/04 12:05:39;;;;;;;6.13;5.73;;;;;;;;;;6252039;22;20506;-96
2021/06/04 12:08:30;;;;;;;5.17;4.87;;;;;;;;;;6264357;22;20496;-96
2021/06/04 12:11:06;;;;;;;5.87;5.47;;;;;;;;;;6261188;22;20507;-96
2021/06/04 12:13:36;;;;;;;5.10;4.60;;;;;;;;;;6257335;22;21006;-95
2021/06/04 12:19:03;;;;;;;5.50;5.10;;;;;;;;;;6177490;23;20452;-95
2021/06/04 12:21:47;;;;;;;6.63;5.20;;;;;;;;;;6252161;22;20406;-96
2021/06/04 12:24:36;;;;;;;5.43;5.03;;;;;;;;;;6268583;22;20408;-96
2021/06/04 12:27:29;;;;;;;5.57;5.17;;;;;;;;;;6269027;22;20394;-96
2021/06/04 12:30:12;;;;;;;5.53;5.23;;;;;;;;;;6268494;22;20396;-95
2021/06/04 12:33:09;;;;;;;5.70;5.20;;;;;;;;;;6246563;22;20436;-96
2021/06/04 12:41:47;;;;;;;5.90;5.40;;;;;;;;;;6222317;22;20475;-96
2021/06/04 12:44:39;;;;;;;5.43;4.93;;;;;;;;;;6301379;22;20505;-96
2021/06/04 12:47:28;;;;;;;5.63;5.23;;;;;;;;;;6293680;22;20535;-96
2021/06/04 12:50:05;;;;;;;7.90;5.13;;;;;;;;;;6236418;22;20487;-96
2021/06/04 13:02:18;;;;;;;6.63;5.37;;;;;;;;;;6302916;22;20456;-95
2021/06/04 13:04:48;;;;;;;6.50;5.50;;;;;;;;;;6303493;22;20470;-96
2021/06/04 13:07:31;;;;;;;6.00;5.60;;;;;;;;;;6296052;22;20440;-96
2021/06/04 13:18:14;;;;;;;5.97;5.47;;;;;;;;;;6289239;22;20524;-96
2021/06/04 13:26:26;;;;;;;5.33;4.93;;;;;;;;;;6287936;22;20464;-94
2021/06/04 13:28:57;;;;;;;5.10;4.67;;;;;;;;;;6298651;22;20424;-96
2021/06/04 13:31:33;;;;;;;5.03;4.67;;;;;;;;;;6279343;22;20476;-96
2021/06/04 13:34:35;;;;;;;6.40;5.33;;;;;;;;;;6271238;22;20444;-96
2021/06/04 13:37:54;;;;;;;5.00;4.60;;;;;;;;;;6300955;22;20420;-95
2021/06/04 13:43:19;;;;;;;5.03;4.63;;;;;;;;;;6293512;22;20456;-96
2021/06/04 13:45:47;;;;;;;10.40;4.90;;;;;;;;;;6297364;22;20421;-95
2021/06/04 13:48:15;;;;;;;7.63;4.80;;;;;;;;;;6294836;22;20393;-96
2021/06/04 13:50:49;;;;;;;5.67;5.10;;;;;;;;;;6299840;22;20403;-93
2021/06/04 13:56:43;;;;;;;5.10;4.60;;;;;;;;;;6301101;22;20409;-96
2021/06/04 13:59:35;;;;;;;5.67;4.73;;;;;;;;;;6280052;22;20450;-96
2021/06/04 14:02:31;;;;;;;4.77;4.37;;;;;;;;;;6292152;22;20448;-96
2021/06/04 14:24:58;;;;;;;6.40;5.80;;;;;;;;;;6268559;22;20460;-96
2021/06/04 14:30:21;;;;;;;7.73;5.50;;;;;;;;;;6234171;23;20507;-94
2021/06/04 14:33:06;;;;;;;6.80;5.70;;;;;;;;;;6238861;22;20456;-96
2021/06/04 14:35:45;;;;;;;5.83;5.33;;;;;;;;;;6300598;22;20425;-96
2021/06/04 14:38:26;;;;;;;6.47;5.40;;;;;;;;;;6296989;22;20412;-96
2021/06/04 14:41:19;;;;;;;7.70;5.13;;;;;;;;;;6298468;22;20424;-96
2021/06/04 14:44:10;;;;;;;5.30;4.90;;;;;;;;;;6300191;22;20410;-96
2021/06/04 14:50:20;;;;;;;6.27;5.80;;;;;;;;;;6296870;22;20398;-96
2021/06/04 14:52:47;;;;;;;6.80;5.90;;;;;;;;;;6296940;22;20518;-96
2021/06/04 14:55:16;;;;;;;6.77;6.10;;;;;;;;;;6297792;22;20421;-96
2021/06/04 14:57:43;;;;;;;6.07;5.67;;;;;;;;;;6294064;22;20481;-96
2021/06/04 15:00:19;;;;;;;6.73;6.03;;;;;;;;;;6295496;22;20419;-96
2021/06/04 15:02:53;;;;;;;6.97;6.30;;;;;;;;;;6297629;22;20428;-96
2021/06/04 15:05:32;;;;;;;7.80;7.17;;;;;;;;;;6298020;22;20390;-96
2021/06/04 15:07:59;;;;;;;8.33;6.87;;;;;;;;;;6272027;22;20411;-96
2021/06/04 15:10:26;;;;;;;11.50;7.20;;;;;;;;;;6294413;22;20402;-94
2021/06/04 15:15:50;;;;;;;7.00;6.33;;;;;;;;;;6291001;22;20411;-96
2021/06/04 15:21:16;;;;;;;6.53;6.00;;;;;;;;;;6297538;22;20409;-96
2021/06/04 15:23:48;;;;;;;7.00;6.50;;;;;;;;;;6298500;22;20409;-96
2021/06/04 15:28:59;;;;;;;7.80;7.20;;;;;;;;;;6271837;22;20436;-96
2021/06/04 15:31:30;;;;;;;7.43;6.83;;;;;;;;;;6291086;22;20419;-96
2021/06/04 15:33:58;;;;;;;7.70;7.07;;;;;;;;;;6294304;22;20440;-96
2021/06/04 15:36:25;;;;;;;7.00;6.40;;;;;;;;;;6296391;22;20459;-96
2021/06/04 15:38:54;;;;;;;7.10;6.50;;;;;;;;;;6290141;22;20416;-96
2021/06/04 15:41:26;;;;;;;7.37;6.77;;;;;;;;;;6294039;22;20430;-96
2021/06/04 15:43:56;;;;;;;7.03;6.43;;;;;;;;;;6298022;22;20410;-96
2021/06/04 15:46:23;;;;;;;7.17;6.57;;;;;;;;;;6290297;22;20453;-96
2021/06/04 15:51:32;;;;;;;7.43;6.90;;;;;;;;;;6240917;22;20452;-94
2021/06/04 15:54:02;;;;;;;7.07;6.47;;;;;;;;;;6232788;23;20517;-96
2021/06/04 15:56:28;;;;;;;7.80;7.20;;;;;;;;;;6234186;23;20477;-95
2021/06/04 15:58:54;;;;;;;7.27;6.67;;;;;;;;;;6229911;23;20474;-93
2021/06/04 16:01:24;;;;;;;7.10;6.50;;;;;;;;;;6231482;23;21003;-96
2021/06/04 16:03:51;;;;;;;7.37;6.80;;;;;;;;;;6235079;22;20398;-96
2021/06/04 16:06:32;;;;;;;7.83;7.13;;;;;;;;;;6292205;22;20436;-96
2021/06/04 16:12:14;;;;;;;7.70;6.93;;;;;;;;;;6292755;22;20447;-96
2021/06/04 16:19:54;;;;;;;7.63;6.93;;;;;;;;;;6280897;22;20507;-96
2021/06/04 16:22:22;;;;;;;6.60;6.10;;;;;;;;;;6271530;22;20457;-95
2021/06/04 16:25:03;;;;;;;6.73;6.20;;;;;;;;;;6270745;22;20425;-96
2021/06/04 16:28:02;;;;;;;6.97;6.40;;;;;;;;;;6263714;23;20448;-96
2021/06/04 16:30:30;;;;;;;6.80;6.30;;;;;;;;;;6269552;23;20409;-96
2021/06/04 16:33:06;;;;;;;7.17;6.40;;;;;;;;;;6265752;22;20454;-96
2021/06/04 16:36:02;;;;;;;7.20;6.60;;;;;;;;;;6265514;22;20457;-96
2021/06/04 16:41:44;;;;;;;7.73;6.17;;;;;;;;;;6206819;22;20505;-96
2021/06/04 16:56:35;;;;;;;7.20;6.30;;;;;;;;;;6272205;22;20477;-96
2021/06/04 16:59:02;;;;;;;8.73;6.00;;;;;;;;;;6270013;22;20449;-96
2021/06/04 17:01:29;;;;;;;8.00;6.37;;;;;;;;;;6265907;23;20433;-95
2021/06/04 17:03:56;;;;;;;14.83;7.57;;;;;;;;;;6264352;23;20418;-96
2021/06/04 17:06:24;;;;;;;6.10;5.60;;;;;;;;;;6269652;23;20417;-96
2021/06/04 17:08:51;;;;;;;6.63;5.50;;;;;;;;;;6266170;23;20444;-95
2021/06/04 17:11:26;;;;;;;7.50;6.73;;;;;;;;;;6264369;23;20456;-95
2021/06/04 17:14:02;;;;;;;5.00;4.60;;;;;;;;;;6266792;23;20452;-96
2021/06/04 17:22:22;;;;;;;7.80;5.70;;;;;;;;;;6270883;23;20429;-96
2021/06/04 17:24:49;;;;;;;6.13;5.37;;;;;;;;;;6264294;22;21177;-96
2021/06/04 17:30:31;;;;;;;8.60;5.23;;;;;;;;;;6271827;22;20418;-96
2021/06/04 17:32:57;;;;;;;6.20;5.67;;;;;;;;;;6272489;22;20426;-96
2021/06/04 17:38:45;;;;;;;5.90;5.50;;;;;;;;;;6262113;22;20409;-96
2021/06/04 17:41:49;;;;;;;7.00;5.47;;;;;;;;;;6269685;22;20433;-96
2021/06/04 17:44:18;;;;;;;6.50;5.50;;;;;;;;;;6265744;23;20412;-96
2021/06/04 17:47:10;;;;;;;5.90;5.30;;;;;;;;;;6272117;22;20382;-96
2021/06/04 17:49:37;;;;;;;6.77;6.10;;;;;;;;;;6252008;22;20439;-96
2021/06/04 17:52:07;;;;;;;8.43;5.80;;;;;;;;;;6258492;23;20448;-96
2021/06/04 17:54:59;;;;;;;9.60;5.70;;;;;;;;;;6270374;22;20445;-96
2021/06/04 17:57:36;;;;;;;7.70;5.83;;;;;;;;;;6267494;22;20442;-96
2021/06/04 18:00:08;;;;;;;6.17;5.67;;;;;;;;;;6272994;22;20385;-96
2021/06/04 18:10:56;;;;;;;6.20;5.70;;;;;;;;;;6291322;22;21338;-96
2021/06/04 18:13:24;;;;;;;9.90;7.13;;;;;;;;;;6267432;23;20439;-95
2021/06/04 18:22:03;;;;;;;11.20;6.80;;;;;;;;;;6233925;23;20402;-96
2021/06/04 18:24:53;;;;;;;6.87;5.83;;;;;;;;;;6251302;22;20511;-95
2021/06/04 18:30:34;;;;;;;9.93;6.23;;;;;;;;;;6289958;22;20459;-96